sensor_id;sensor_type;location;lat;lon;timestamp;temperature;humidity
22734;DHT22;11534;51.994;5.692;2024-03-08T00:01:41;4.00;99.90
22734;DHT22;11534;51.994;5.692;2024-03-08T00:04:07;4.00;99.90
22734;DHT22;11534;51.994;5.692;2024-03-08T00:06:33;4.00;99.90
22734;DHT22;11534;51.994;5.692;2024-03-08T00:08:59;3.90;99.90
22734;DHT22;11534;51.994;5.692;2024-03-08T00:11:25;4.00;99.90
22734;DHT22;11534;51.994;5.692;2024-03-08T00:13:52;4.00;99.90
22734;DHT22;11534;51.994;5.692;2024-03-08T00:16:18;3.90;99.90
22734;DHT22;11534;51.994;5.692;2024-03-08T00:18:48;3.80;99.90
22734;DHT22;11534;51.994;5.692;2024-03-08T00:21:14;3.80;99.90
22734;DHT22;11534;51.994;5.692;2024-03-08T00:23:40;3.80;99.90
22734;DHT22;11534;51.994;5.692;2024-03-08T00:26:07;3.80;99.90
22734;DHT22;11534;51.994;5.692;2024-03-08T00:28:32;3.80;99.90
22734;DHT22;11534;51.994;5.692;2024-03-08T00:31:00;3.70;99.90
22734;DHT22;11534;51.994;5.692;2024-03-08T00:33:26;3.80;99.90
22734;DHT22;11534;51.994;5.692;2024-03-08T00:35:56;3.70;99.90
22734;DHT22;11534;51.994;5.692;2024-03-08T00:38:21;3.70;99.90
22734;DHT22;11534;51.994;5.692;2024-03-08T00:40:47;3.70;99.90
22734;DHT22;11534;51.994;5.692;2024-03-08T00:43:12;3.70;99.90
22734;DHT22;11534;51.994;5.692;2024-03-08T00:45:38;3.70;99.90
22734;DHT22;11534;51.994;5.692;2024-03-08T00:48:08;3.60;99.90
22734;DHT22;11534;51.994;5.692;2024-03-08T00:50:34;3.60;99.90
22734;DHT22;11534;51.994;5.692;2024-03-08T00:52:59;3.60;99.90
22734;DHT22;11534;51.994;5.692;2024-03-08T00:55:26;3.50;99.90
22734;DHT22;11534;51.994;5.692;2024-03-08T00:57:52;3.50;99.90
22734;DHT22;11534;51.994;5.692;2024-03-08T01:00:19;3.50;99.90
22734;DHT22;11534;51.994;5.692;2024-03-08T01:02:46;3.50;99.90
22734;DHT22;11534;51.994;5.692;2024-03-08T01:05:12;3.40;99.90
22734;DHT22;11534;51.994;5.692;2024-03-08T01:07:38;3.30;99.90
22734;DHT22;11534;51.994;5.692;2024-03-08T01:10:05;3.30;99.90
22734;DHT22;11534;51.994;5.692;2024-03-08T01:12:37;3.20;99.90
22734;DHT22;11534;51.994;5.692;2024-03-08T01:15:02;3.20;99.90
22734;DHT22;11534;51.994;5.692;2024-03-08T01:17:28;3.20;99.90
22734;DHT22;11534;51.994;5.692;2024-03-08T01:19:54;3.20;99.90
22734;DHT22;11534;51.994;5.692;2024-03-08T01:22:20;3.20;99.90
22734;DHT22;11534;51.994;5.692;2024-03-08T01:24:45;3.20;99.90
22734;DHT22;11534;51.994;5.692;2024-03-08T01:27:11;3.20;99.90
22734;DHT22;11534;51.994;5.692;2024-03-08T01:29:37;3.10;99.90
22734;DHT22;11534;51.994;5.692;2024-03-08T01:32:03;3.10;99.90
22734;DHT22;11534;51.994;5.692;2024-03-08T01:34:29;3.00;99.90
22734;DHT22;11534;51.994;5.692;2024-03-08T01:36:55;3.00;99.90
22734;DHT22;11534;51.994;5.692;2024-03-08T01:39:22;3.00;99.90
22734;DHT22;11534;51.994;5.692;2024-03-08T01:41:47;3.00;99.90
22734;DHT22;11534;51.994;5.692;2024-03-08T01:44:13;2.90;99.90
22734;DHT22;11534;51.994;5.692;2024-03-08T01:46:44;3.00;99.90
22734;DHT22;11534;51.994;5.692;2024-03-08T01:49:10;2.90;99.90
22734;DHT22;11534;51.994;5.692;2024-03-08T01:51:36;3.00;99.90
22734;DHT22;11534;51.994;5.692;2024-03-08T01:54:03;2.90;99.90
22734;DHT22;11534;51.994;5.692;2024-03-08T01:56:30;3.00;99.90
22734;DHT22;11534;51.994;5.692;2024-03-08T01:58:57;2.90;99.90
22734;DHT22;11534;51.994;5.692;2024-03-08T02:01:24;2.90;99.90
22734;DHT22;11534;51.994;5.692;2024-03-08T02:03:50;2.90;99.90
22734;DHT22;11534;51.994;5.692;2024-03-08T02:06:16;2.90;99.90
22734;DHT22;11534;51.994;5.692;2024-03-08T02:08:45;2.90;99.90
22734;DHT22;11534;51.994;5.692;2024-03-08T02:11:12;2.90;99.90
22734;DHT22;11534;51.994;5.692;2024-03-08T02:13:38;2.80;99.90
22734;DHT22;11534;51.994;5.692;2024-03-08T02:16:04;2.80;99.90
22734;DHT22;11534;51.994;5.692;2024-03-08T02:18:31;2.80;99.90
22734;DHT22;11534;51.994;5.692;2024-03-08T02:21:01;2.70;99.90
22734;DHT22;11534;51.994;5.692;2024-03-08T02:23:28;2.70;99.90
22734;DHT22;11534;51.994;5.692;2024-03-08T02:25:55;2.70;99.90
22734;DHT22;11534;51.994;5.692;2024-03-08T02:28:22;2.70;99.90
22734;DHT22;11534;51.994;5.692;2024-03-08T02:30:50;2.70;99.90
22734;DHT22;11534;51.994;5.692;2024-03-08T02:33:17;2.60;99.90
22734;DHT22;11534;51.994;5.692;2024-03-08T02:35:44;2.60;99.90
22734;DHT22;11534;51.994;5.692;2024-03-08T02:38:22;2.60;99.90
22734;DHT22;11534;51.994;5.692;2024-03-08T02:40:51;2.60;99.90
22734;DHT22;11534;51.994;5.692;2024-03-08T02:43:19;2.50;99.90
22734;DHT22;11534;51.994;5.692;2024-03-08T02:45:45;2.50;99.90
22734;DHT22;11534;51.994;5.692;2024-03-08T02:48:12;2.50;99.90
22734;DHT22;11534;51.994;5.692;2024-03-08T02:50:38;2.40;99.90
22734;DHT22;11534;51.994;5.692;2024-03-08T02:53:06;2.40;99.90
22734;DHT22;11534;51.994;5.692;2024-03-08T02:55:32;2.40;99.90
22734;DHT22;11534;51.994;5.692;2024-03-08T02:58:01;2.40;99.90
22734;DHT22;11534;51.994;5.692;2024-03-08T03:00:28;2.40;99.90
22734;DHT22;11534;51.994;5.692;2024-03-08T03:02:56;2.40;99.90
22734;DHT22;11534;51.994;5.692;2024-03-08T03:05:22;2.30;99.90
22734;DHT22;11534;51.994;5.692;2024-03-08T03:07:48;2.30;99.90
22734;DHT22;11534;51.994;5.692;2024-03-08T03:10:16;2.30;99.90
22734;DHT22;11534;51.994;5.692;2024-03-08T03:12:42;2.30;99.90
22734;DHT22;11534;51.994;5.692;2024-03-08T03:15:08;2.30;99.90
22734;DHT22;11534;51.994;5.692;2024-03-08T03:17:35;2.30;99.90
22734;DHT22;11534;51.994;5.692;2024-03-08T03:20:01;2.30;99.90
22734;DHT22;11534;51.994;5.692;2024-03-08T03:22:34;2.20;99.90
22734;DHT22;11534;51.994;5.692;2024-03-08T03:25:00;2.20;99.90
22734;DHT22;11534;51.994;5.692;2024-03-08T03:27:26;2.30;99.90
22734;DHT22;11534;51.994;5.692;2024-03-08T03:29:51;2.20;99.90
22734;DHT22;11534;51.994;5.692;2024-03-08T03:32:17;2.30;99.90
22734;DHT22;11534;51.994;5.692;2024-03-08T03:34:44;2.30;99.90
22734;DHT22;11534;51.994;5.692;2024-03-08T03:37:10;2.30;99.90
22734;DHT22;11534;51.994;5.692;2024-03-08T03:39:39;2.30;99.90
22734;DHT22;11534;51.994;5.692;2024-03-08T03:42:18;2.30;99.90
22734;DHT22;11534;51.994;5.692;2024-03-08T03:44:45;2.20;99.90
22734;DHT22;11534;51.994;5.692;2024-03-08T03:47:11;2.20;99.90
22734;DHT22;11534;51.994;5.692;2024-03-08T03:49:36;2.20;99.90
22734;DHT22;11534;51.994;5.692;2024-03-08T03:52:02;2.30;99.90
22734;DHT22;11534;51.994;5.692;2024-03-08T03:54:30;2.30;99.90
22734;DHT22;11534;51.994;5.692;2024-03-08T03:56:56;2.30;99.90
22734;DHT22;11534;51.994;5.692;2024-03-08T03:59:22;2.30;99.90
22734;DHT22;11534;51.994;5.692;2024-03-08T04:01:48;2.30;99.90
22734;DHT22;11534;51.994;5.692;2024-03-08T04:04:15;2.30;99.90
22734;DHT22;11534;51.994;5.692;2024-03-08T04:06:41;2.30;99.90
22734;DHT22;11534;51.994;5.692;2024-03-08T04:09:07;2.30;99.90
22734;DHT22;11534;51.994;5.692;2024-03-08T04:11:33;2.30;99.90
22734;DHT22;11534;51.994;5.692;2024-03-08T04:13:59;2.30;99.90
22734;DHT22;11534;51.994;5.692;2024-03-08T04:16:24;2.20;99.90
22734;DHT22;11534;51.994;5.692;2024-03-08T04:18:51;2.20;99.90
22734;DHT22;11534;51.994;5.692;2024-03-08T04:21:17;2.20;99.90
22734;DHT22;11534;51.994;5.692;2024-03-08T04:23:45;2.20;99.90
22734;DHT22;11534;51.994;5.692;2024-03-08T04:26:11;2.20;99.90
22734;DHT22;11534;51.994;5.692;2024-03-08T04:28:37;2.10;99.90
22734;DHT22;11534;51.994;5.692;2024-03-08T04:31:03;2.10;99.90
22734;DHT22;11534;51.994;5.692;2024-03-08T04:33:29;2.10;99.90
22734;DHT22;11534;51.994;5.692;2024-03-08T04:35:55;2.10;99.90
22734;DHT22;11534;51.994;5.692;2024-03-08T04:38:21;2.10;99.90
22734;DHT22;11534;51.994;5.692;2024-03-08T04:40:47;2.10;99.90
22734;DHT22;11534;51.994;5.692;2024-03-08T04:43:12;2.10;99.90
22734;DHT22;11534;51.994;5.692;2024-03-08T04:45:39;2.10;99.90
22734;DHT22;11534;51.994;5.692;2024-03-08T04:48:09;2.00;99.90
22734;DHT22;11534;51.994;5.692;2024-03-08T04:50:35;2.00;99.90
22734;DHT22;11534;51.994;5.692;2024-03-08T04:53:00;2.10;99.90
22734;DHT22;11534;51.994;5.692;2024-03-08T04:55:26;2.00;99.90
22734;DHT22;11534;51.994;5.692;2024-03-08T04:57:52;2.10;99.90
22734;DHT22;11534;51.994;5.692;2024-03-08T05:00:18;2.10;99.90
22734;DHT22;11534;51.994;5.692;2024-03-08T05:02:44;2.10;99.90
22734;DHT22;11534;51.994;5.692;2024-03-08T05:05:10;2.10;99.90
22734;DHT22;11534;51.994;5.692;2024-03-08T05:07:39;2.10;99.90
22734;DHT22;11534;51.994;5.692;2024-03-08T05:10:06;2.00;99.90
22734;DHT22;11534;51.994;5.692;2024-03-08T05:12:33;2.00;99.90
22734;DHT22;11534;51.994;5.692;2024-03-08T05:14:58;2.00;99.90
22734;DHT22;11534;51.994;5.692;2024-03-08T05:17:24;2.00;99.90
22734;DHT22;11534;51.994;5.692;2024-03-08T05:19:50;2.00;99.90
22734;DHT22;11534;51.994;5.692;2024-03-08T05:22:16;2.00;99.90
22734;DHT22;11534;51.994;5.692;2024-03-08T05:24:43;2.00;99.90
22734;DHT22;11534;51.994;5.692;2024-03-08T05:27:08;1.90;99.90
22734;DHT22;11534;51.994;5.692;2024-03-08T05:29:34;1.90;99.90
22734;DHT22;11534;51.994;5.692;2024-03-08T05:32:00;1.90;99.90
22734;DHT22;11534;51.994;5.692;2024-03-08T05:34:26;1.90;99.90
22734;DHT22;11534;51.994;5.692;2024-03-08T05:36:54;1.90;99.90
22734;DHT22;11534;51.994;5.692;2024-03-08T05:39:20;1.90;99.90
22734;DHT22;11534;51.994;5.692;2024-03-08T05:41:46;1.90;99.90
22734;DHT22;11534;51.994;5.692;2024-03-08T05:44:13;1.80;99.90
22734;DHT22;11534;51.994;5.692;2024-03-08T05:46:39;1.80;99.90
22734;DHT22;11534;51.994;5.692;2024-03-08T05:49:05;1.90;99.90
22734;DHT22;11534;51.994;5.692;2024-03-08T05:51:32;1.80;99.90
22734;DHT22;11534;51.994;5.692;2024-03-08T05:54:00;1.80;99.90
22734;DHT22;11534;51.994;5.692;2024-03-08T05:56:28;1.80;99.90
22734;DHT22;11534;51.994;5.692;2024-03-08T05:58:54;1.90;99.90
22734;DHT22;11534;51.994;5.692;2024-03-08T06:01:20;1.90;99.90
22734;DHT22;11534;51.994;5.692;2024-03-08T06:03:45;1.90;99.90
22734;DHT22;11534;51.994;5.692;2024-03-08T06:06:13;1.80;99.90
22734;DHT22;11534;51.994;5.692;2024-03-08T06:08:39;1.80;99.90
22734;DHT22;11534;51.994;5.692;2024-03-08T06:11:05;1.80;99.90
22734;DHT22;11534;51.994;5.692;2024-03-08T06:13:33;1.80;99.90
22734;DHT22;11534;51.994;5.692;2024-03-08T06:15:59;1.80;99.90
22734;DHT22;11534;51.994;5.692;2024-03-08T06:18:26;1.80;99.90
22734;DHT22;11534;51.994;5.692;2024-03-08T06:20:52;1.80;99.90
22734;DHT22;11534;51.994;5.692;2024-03-08T06:23:18;1.80;99.90
22734;DHT22;11534;51.994;5.692;2024-03-08T06:25:44;1.70;99.90
22734;DHT22;11534;51.994;5.692;2024-03-08T06:28:10;1.80;99.90
22734;DHT22;11534;51.994;5.692;2024-03-08T06:30:36;1.80;99.90
22734;DHT22;11534;51.994;5.692;2024-03-08T06:33:01;1.80;99.90
22734;DHT22;11534;51.994;5.692;2024-03-08T06:35:27;1.80;99.90
22734;DHT22;11534;51.994;5.692;2024-03-08T06:37:53;1.80;99.90
22734;DHT22;11534;51.994;5.692;2024-03-08T06:40:19;1.80;99.90
22734;DHT22;11534;51.994;5.692;2024-03-08T06:42:45;1.80;99.90
22734;DHT22;11534;51.994;5.692;2024-03-08T06:45:11;1.90;99.90
22734;DHT22;11534;51.994;5.692;2024-03-08T06:47:38;1.90;99.90
22734;DHT22;11534;51.994;5.692;2024-03-08T06:50:04;1.90;99.90
22734;DHT22;11534;51.994;5.692;2024-03-08T06:52:29;1.90;99.90
22734;DHT22;11534;51.994;5.692;2024-03-08T06:54:55;1.90;99.90
22734;DHT22;11534;51.994;5.692;2024-03-08T06:57:22;1.90;99.90
22734;DHT22;11534;51.994;5.692;2024-03-08T06:59:49;1.90;99.90
22734;DHT22;11534;51.994;5.692;2024-03-08T07:02:15;1.90;99.90
22734;DHT22;11534;51.994;5.692;2024-03-08T07:04:40;1.90;99.90
22734;DHT22;11534;51.994;5.692;2024-03-08T07:07:06;2.00;99.90
22734;DHT22;11534;51.994;5.692;2024-03-08T07:09:38;2.00;99.90
22734;DHT22;11534;51.994;5.692;2024-03-08T07:12:04;2.00;99.90
22734;DHT22;11534;51.994;5.692;2024-03-08T07:14:30;2.10;99.90
22734;DHT22;11534;51.994;5.692;2024-03-08T07:16:58;2.10;99.90
22734;DHT22;11534;51.994;5.692;2024-03-08T07:19:24;2.10;99.90
22734;DHT22;11534;51.994;5.692;2024-03-08T07:21:49;2.20;99.90
22734;DHT22;11534;51.994;5.692;2024-03-08T07:24:15;2.20;99.90
22734;DHT22;11534;51.994;5.692;2024-03-08T07:26:44;2.20;99.90
22734;DHT22;11534;51.994;5.692;2024-03-08T07:29:09;2.30;99.90
22734;DHT22;11534;51.994;5.692;2024-03-08T07:31:35;2.30;99.90
22734;DHT22;11534;51.994;5.692;2024-03-08T07:34:16;2.40;99.90
22734;DHT22;11534;51.994;5.692;2024-03-08T07:36:42;2.40;99.90
22734;DHT22;11534;51.994;5.692;2024-03-08T07:39:08;2.40;99.90
22734;DHT22;11534;51.994;5.692;2024-03-08T07:41:40;2.50;99.90
22734;DHT22;11534;51.994;5.692;2024-03-08T07:44:07;2.50;99.90
22734;DHT22;11534;51.994;5.692;2024-03-08T07:46:32;2.60;99.90
22734;DHT22;11534;51.994;5.692;2024-03-08T07:48:59;2.70;99.90
22734;DHT22;11534;51.994;5.692;2024-03-08T07:51:25;2.70;99.90
22734;DHT22;11534;51.994;5.692;2024-03-08T07:53:51;2.80;99.90
22734;DHT22;11534;51.994;5.692;2024-03-08T07:56:17;2.90;99.90
22734;DHT22;11534;51.994;5.692;2024-03-08T07:58:44;3.00;99.90
22734;DHT22;11534;51.994;5.692;2024-03-08T08:01:19;3.00;99.90
22734;DHT22;11534;51.994;5.692;2024-03-08T08:03:45;3.10;99.90
22734;DHT22;11534;51.994;5.692;2024-03-08T08:06:11;3.10;99.90
22734;DHT22;11534;51.994;5.692;2024-03-08T08:08:44;3.20;99.90
22734;DHT22;11534;51.994;5.692;2024-03-08T08:11:10;3.20;99.90
22734;DHT22;11534;51.994;5.692;2024-03-08T08:13:41;3.30;99.90
22734;DHT22;11534;51.994;5.692;2024-03-08T08:16:09;3.20;99.90
22734;DHT22;11534;51.994;5.692;2024-03-08T08:18:35;3.30;99.90
22734;DHT22;11534;51.994;5.692;2024-03-08T08:21:02;3.30;99.90
22734;DHT22;11534;51.994;5.692;2024-03-08T08:23:28;3.40;99.90
22734;DHT22;11534;51.994;5.692;2024-03-08T08:25:54;3.40;99.90
22734;DHT22;11534;51.994;5.692;2024-03-08T08:28:21;3.40;99.90
22734;DHT22;11534;51.994;5.692;2024-03-08T08:30:46;3.50;99.90
22734;DHT22;11534;51.994;5.692;2024-03-08T08:33:12;3.60;99.90
22734;DHT22;11534;51.994;5.692;2024-03-08T08:35:38;3.60;99.90
22734;DHT22;11534;51.994;5.692;2024-03-08T08:38:04;3.60;99.90
22734;DHT22;11534;51.994;5.692;2024-03-08T08:40:30;3.60;99.90
22734;DHT22;11534;51.994;5.692;2024-03-08T08:42:58;3.70;99.90
22734;DHT22;11534;51.994;5.692;2024-03-08T08:45:23;3.70;99.90
22734;DHT22;11534;51.994;5.692;2024-03-08T08:47:49;3.80;99.90
22734;DHT22;11534;51.994;5.692;2024-03-08T08:50:15;3.90;99.90
22734;DHT22;11534;51.994;5.692;2024-03-08T08:52:42;3.90;99.90
22734;DHT22;11534;51.994;5.692;2024-03-08T08:55:10;4.00;99.90
22734;DHT22;11534;51.994;5.692;2024-03-08T08:57:40;4.00;99.90
22734;DHT22;11534;51.994;5.692;2024-03-08T09:00:06;4.10;99.90
22734;DHT22;11534;51.994;5.692;2024-03-08T09:02:33;4.30;99.90
22734;DHT22;11534;51.994;5.692;2024-03-08T09:04:59;4.40;99.90
22734;DHT22;11534;51.994;5.692;2024-03-08T09:07:26;4.50;99.90
22734;DHT22;11534;51.994;5.692;2024-03-08T09:09:53;4.70;99.90
22734;DHT22;11534;51.994;5.692;2024-03-08T09:12:23;4.80;99.90
22734;DHT22;11534;51.994;5.692;2024-03-08T09:14:48;4.90;99.90
22734;DHT22;11534;51.994;5.692;2024-03-08T09:17:15;5.10;99.90
22734;DHT22;11534;51.994;5.692;2024-03-08T09:19:48;5.30;99.90
22734;DHT22;11534;51.994;5.692;2024-03-08T09:22:14;5.40;99.90
22734;DHT22;11534;51.994;5.692;2024-03-08T09:24:39;5.50;99.90
22734;DHT22;11534;51.994;5.692;2024-03-08T09:27:05;5.60;99.90
22734;DHT22;11534;51.994;5.692;2024-03-08T09:29:31;5.80;99.90
22734;DHT22;11534;51.994;5.692;2024-03-08T09:31:57;6.00;99.90
22734;DHT22;11534;51.994;5.692;2024-03-08T09:34:23;6.00;99.90
22734;DHT22;11534;51.994;5.692;2024-03-08T09:36:49;6.10;99.90
22734;DHT22;11534;51.994;5.692;2024-03-08T09:39:16;6.30;99.90
22734;DHT22;11534;51.994;5.692;2024-03-08T09:41:46;6.60;99.90
22734;DHT22;11534;51.994;5.692;2024-03-08T09:44:18;6.80;99.90
22734;DHT22;11534;51.994;5.692;2024-03-08T09:46:46;7.00;99.90
22734;DHT22;11534;51.994;5.692;2024-03-08T09:49:17;7.20;99.90
22734;DHT22;11534;51.994;5.692;2024-03-08T09:51:42;7.40;99.90
22734;DHT22;11534;51.994;5.692;2024-03-08T09:54:08;7.40;99.90
22734;DHT22;11534;51.994;5.692;2024-03-08T09:56:38;7.50;99.90
22734;DHT22;11534;51.994;5.692;2024-03-08T09:59:07;7.60;99.90
22734;DHT22;11534;51.994;5.692;2024-03-08T10:01:51;7.70;99.90
22734;DHT22;11534;51.994;5.692;2024-03-08T10:04:24;7.90;99.90
22734;DHT22;11534;51.994;5.692;2024-03-08T10:06:51;8.00;99.90
22734;DHT22;11534;51.994;5.692;2024-03-08T10:09:17;7.90;99.90
22734;DHT22;11534;51.994;5.692;2024-03-08T10:11:44;8.10;99.90
22734;DHT22;11534;51.994;5.692;2024-03-08T10:14:11;8.10;99.90
22734;DHT22;11534;51.994;5.692;2024-03-08T10:16:40;8.10;99.90
22734;DHT22;11534;51.994;5.692;2024-03-08T10:19:07;8.00;99.90
22734;DHT22;11534;51.994;5.692;2024-03-08T10:21:33;8.10;99.90
22734;DHT22;11534;51.994;5.692;2024-03-08T10:23:59;8.20;99.90
22734;DHT22;11534;51.994;5.692;2024-03-08T10:26:25;8.40;99.90
22734;DHT22;11534;51.994;5.692;2024-03-08T10:28:52;8.50;99.90
22734;DHT22;11534;51.994;5.692;2024-03-08T10:31:21;8.50;99.90
22734;DHT22;11534;51.994;5.692;2024-03-08T10:33:47;8.60;99.90
22734;DHT22;11534;51.994;5.692;2024-03-08T10:36:13;8.70;99.90
22734;DHT22;11534;51.994;5.692;2024-03-08T10:38:41;8.80;99.90
22734;DHT22;11534;51.994;5.692;2024-03-08T10:41:11;9.00;99.90
22734;DHT22;11534;51.994;5.692;2024-03-08T10:46:30;9.20;99.90
22734;DHT22;11534;51.994;5.692;2024-03-08T10:49:04;9.30;99.90
22734;DHT22;11534;51.994;5.692;2024-03-08T10:51:32;9.50;99.90
22734;DHT22;11534;51.994;5.692;2024-03-08T10:53:59;9.50;99.90
22734;DHT22;11534;51.994;5.692;2024-03-08T10:56:25;9.80;99.90
22734;DHT22;11534;51.994;5.692;2024-03-08T10:58:54;9.80;99.90
22734;DHT22;11534;51.994;5.692;2024-03-08T11:01:20;10.00;99.90
22734;DHT22;11534;51.994;5.692;2024-03-08T11:03:46;10.30;99.90
22734;DHT22;11534;51.994;5.692;2024-03-08T11:06:18;10.30;99.90
22734;DHT22;11534;51.994;5.692;2024-03-08T11:08:48;10.60;99.90
22734;DHT22;11534;51.994;5.692;2024-03-08T11:11:26;10.90;99.90
22734;DHT22;11534;51.994;5.692;2024-03-08T11:13:53;11.00;99.90
22734;DHT22;11534;51.994;5.692;2024-03-08T11:18:53;11.50;99.90
22734;DHT22;11534;51.994;5.692;2024-03-08T11:21:19;11.60;99.90
22734;DHT22;11534;51.994;5.692;2024-03-08T11:24:02;11.70;99.90
22734;DHT22;11534;51.994;5.692;2024-03-08T11:26:31;11.90;99.90
22734;DHT22;11534;51.994;5.692;2024-03-08T11:32:15;11.90;99.90
22734;DHT22;11534;51.994;5.692;2024-03-08T11:34:47;12.10;99.90
22734;DHT22;11534;51.994;5.692;2024-03-08T11:37:16;12.30;99.90
22734;DHT22;11534;51.994;5.692;2024-03-08T11:40:01;12.80;99.90
22734;DHT22;11534;51.994;5.692;2024-03-08T11:42:30;13.00;99.90
22734;DHT22;11534;51.994;5.692;2024-03-08T11:44:56;13.10;99.90
22734;DHT22;11534;51.994;5.692;2024-03-08T11:47:22;13.20;99.90
22734;DHT22;11534;51.994;5.692;2024-03-08T11:49:48;12.90;99.90
22734;DHT22;11534;51.994;5.692;2024-03-08T11:52:15;13.20;99.90
22734;DHT22;11534;51.994;5.692;2024-03-08T11:54:43;12.90;99.90
22734;DHT22;11534;51.994;5.692;2024-03-08T11:57:12;12.60;99.90
22734;DHT22;11534;51.994;5.692;2024-03-08T11:59:38;12.90;99.90
22734;DHT22;11534;51.994;5.692;2024-03-08T12:02:07;13.10;99.90
22734;DHT22;11534;51.994;5.692;2024-03-08T12:04:36;12.50;99.90
22734;DHT22;11534;51.994;5.692;2024-03-08T12:07:02;12.50;99.90
22734;DHT22;11534;51.994;5.692;2024-03-08T12:09:35;12.90;99.90
22734;DHT22;11534;51.994;5.692;2024-03-08T12:12:02;13.40;99.90
22734;DHT22;11534;51.994;5.692;2024-03-08T12:14:30;13.40;99.90
22734;DHT22;11534;51.994;5.692;2024-03-08T12:16:55;13.70;99.90
22734;DHT22;11534;51.994;5.692;2024-03-08T12:19:21;13.10;99.90
22734;DHT22;11534;51.994;5.692;2024-03-08T12:21:47;13.40;99.90
22734;DHT22;11534;51.994;5.692;2024-03-08T12:24:16;13.60;99.90
22734;DHT22;11534;51.994;5.692;2024-03-08T12:26:46;13.80;99.90
22734;DHT22;11534;51.994;5.692;2024-03-08T12:31:52;13.60;99.90
22734;DHT22;11534;51.994;5.692;2024-03-08T12:34:21;13.20;99.90
22734;DHT22;11534;51.994;5.692;2024-03-08T12:36:48;12.70;99.90
22734;DHT22;11534;51.994;5.692;2024-03-08T12:39:16;12.70;99.90
22734;DHT22;11534;51.994;5.692;2024-03-08T12:41:43;12.80;99.90
22734;DHT22;11534;51.994;5.692;2024-03-08T12:44:09;13.20;99.90
22734;DHT22;11534;51.994;5.692;2024-03-08T12:46:37;13.10;99.90
22734;DHT22;11534;51.994;5.692;2024-03-08T12:49:07;12.80;99.90
22734;DHT22;11534;51.994;5.692;2024-03-08T12:51:35;13.10;99.90
22734;DHT22;11534;51.994;5.692;2024-03-08T12:54:01;13.30;99.90
22734;DHT22;11534;51.994;5.692;2024-03-08T12:56:31;13.30;99.90
22734;DHT22;11534;51.994;5.692;2024-03-08T12:58:58;13.20;99.90
22734;DHT22;11534;51.994;5.692;2024-03-08T13:01:24;13.10;99.90
22734;DHT22;11534;51.994;5.692;2024-03-08T13:03:49;13.60;99.90
22734;DHT22;11534;51.994;5.692;2024-03-08T13:06:15;14.00;99.90
22734;DHT22;11534;51.994;5.692;2024-03-08T13:08:41;14.00;99.90
22734;DHT22;11534;51.994;5.692;2024-03-08T13:11:10;13.80;99.90
22734;DHT22;11534;51.994;5.692;2024-03-08T13:13:40;13.60;99.90
22734;DHT22;11534;51.994;5.692;2024-03-08T13:16:06;13.80;99.90
22734;DHT22;11534;51.994;5.692;2024-03-08T13:18:36;13.60;99.90
22734;DHT22;11534;51.994;5.692;2024-03-08T13:21:03;13.50;99.90
22734;DHT22;11534;51.994;5.692;2024-03-08T13:23:36;13.50;99.90
22734;DHT22;11534;51.994;5.692;2024-03-08T13:26:06;13.30;99.90
22734;DHT22;11534;51.994;5.692;2024-03-08T13:28:32;13.40;99.90
22734;DHT22;11534;51.994;5.692;2024-03-08T13:31:03;13.40;99.90
22734;DHT22;11534;51.994;5.692;2024-03-08T13:33:32;13.10;99.90
22734;DHT22;11534;51.994;5.692;2024-03-08T13:36:01;12.90;99.90
22734;DHT22;11534;51.994;5.692;2024-03-08T13:38:27;12.70;99.90
22734;DHT22;11534;51.994;5.692;2024-03-08T13:40:53;12.40;99.90
22734;DHT22;11534;51.994;5.692;2024-03-08T13:43:19;12.50;99.90
22734;DHT22;11534;51.994;5.692;2024-03-08T13:45:46;12.00;99.90
22734;DHT22;11534;51.994;5.692;2024-03-08T13:48:11;12.10;99.90
22734;DHT22;11534;51.994;5.692;2024-03-08T13:50:38;12.20;99.90
22734;DHT22;11534;51.994;5.692;2024-03-08T13:53:05;12.10;99.90
22734;DHT22;11534;51.994;5.692;2024-03-08T13:55:30;12.20;99.90
22734;DHT22;11534;51.994;5.692;2024-03-08T13:57:57;12.10;99.90
22734;DHT22;11534;51.994;5.692;2024-03-08T14:00:22;12.40;99.90
22734;DHT22;11534;51.994;5.692;2024-03-08T14:02:50;12.20;99.90
22734;DHT22;11534;51.994;5.692;2024-03-08T14:05:16;12.20;99.90
22734;DHT22;11534;51.994;5.692;2024-03-08T14:07:45;12.10;99.90
22734;DHT22;11534;51.994;5.692;2024-03-08T14:10:14;11.90;99.90
22734;DHT22;11534;51.994;5.692;2024-03-08T14:12:40;11.70;99.90
22734;DHT22;11534;51.994;5.692;2024-03-08T14:15:05;11.70;99.90
22734;DHT22;11534;51.994;5.692;2024-03-08T14:17:32;11.80;99.90
22734;DHT22;11534;51.994;5.692;2024-03-08T14:19:58;11.40;99.90
22734;DHT22;11534;51.994;5.692;2024-03-08T14:22:24;11.60;99.90
22734;DHT22;11534;51.994;5.692;2024-03-08T14:24:50;11.80;99.90
22734;DHT22;11534;51.994;5.692;2024-03-08T14:27:17;11.80;99.90
22734;DHT22;11534;51.994;5.692;2024-03-08T14:29:44;11.70;99.90
22734;DHT22;11534;51.994;5.692;2024-03-08T14:32:10;11.60;99.90
22734;DHT22;11534;51.994;5.692;2024-03-08T14:34:36;11.60;99.90
22734;DHT22;11534;51.994;5.692;2024-03-08T14:37:02;11.70;99.90
22734;DHT22;11534;51.994;5.692;2024-03-08T14:39:31;11.90;99.90
22734;DHT22;11534;51.994;5.692;2024-03-08T14:41:59;11.70;99.90
22734;DHT22;11534;51.994;5.692;2024-03-08T14:44:25;11.60;99.90
22734;DHT22;11534;51.994;5.692;2024-03-08T14:46:52;11.50;99.90
22734;DHT22;11534;51.994;5.692;2024-03-08T14:49:18;11.20;99.90
22734;DHT22;11534;51.994;5.692;2024-03-08T14:51:44;11.20;99.90
22734;DHT22;11534;51.994;5.692;2024-03-08T14:54:10;10.90;99.90
22734;DHT22;11534;51.994;5.692;2024-03-08T14:56:37;10.70;99.90
22734;DHT22;11534;51.994;5.692;2024-03-08T14:59:02;10.60;99.90
22734;DHT22;11534;51.994;5.692;2024-03-08T15:01:30;10.60;99.90
22734;DHT22;11534;51.994;5.692;2024-03-08T15:03:58;10.70;99.90
22734;DHT22;11534;51.994;5.692;2024-03-08T15:06:34;10.60;99.90
22734;DHT22;11534;51.994;5.692;2024-03-08T15:09:02;10.70;99.90
22734;DHT22;11534;51.994;5.692;2024-03-08T15:11:37;10.80;99.90
22734;DHT22;11534;51.994;5.692;2024-03-08T15:14:05;10.70;99.90
22734;DHT22;11534;51.994;5.692;2024-03-08T15:16:38;10.70;99.90
22734;DHT22;11534;51.994;5.692;2024-03-08T15:19:06;10.70;99.90
22734;DHT22;11534;51.994;5.692;2024-03-08T15:21:32;10.70;99.90
22734;DHT22;11534;51.994;5.692;2024-03-08T15:24:00;10.60;99.90
22734;DHT22;11534;51.994;5.692;2024-03-08T15:26:28;10.50;99.90
22734;DHT22;11534;51.994;5.692;2024-03-08T15:28:55;10.50;99.90
22734;DHT22;11534;51.994;5.692;2024-03-08T15:31:22;10.40;99.90
22734;DHT22;11534;51.994;5.692;2024-03-08T15:33:50;10.40;99.90
22734;DHT22;11534;51.994;5.692;2024-03-08T15:36:32;10.10;99.90
22734;DHT22;11534;51.994;5.692;2024-03-08T15:38:59;10.20;99.90
22734;DHT22;11534;51.994;5.692;2024-03-08T15:41:25;10.10;99.90
22734;DHT22;11534;51.994;5.692;2024-03-08T15:43:52;10.10;99.90
22734;DHT22;11534;51.994;5.692;2024-03-08T15:46:18;10.10;99.90
22734;DHT22;11534;51.994;5.692;2024-03-08T15:48:48;10.10;99.90
22734;DHT22;11534;51.994;5.692;2024-03-08T15:51:14;10.00;99.90
22734;DHT22;11534;51.994;5.692;2024-03-08T15:53:43;10.00;99.90